Skardu Weather



Skardu's Current Weather

Temprature 10.55o clear sky

clear sky

Rain: 0 %

Min Temprature10.55o
Max Temprature10.55o
Humidity33
Wind Speed1.89 m/h
Sun Rise05:22:49
Sun Set18:38:07
Current Time: 23-Aug-2019 05:10:09
Lat/Lon: 35.29, 75.63




Skardu's Geo Location



Skardu's Weather Forecast

Time Overall Temp Min Temp Max Temp Humidity Wind Speed Rain
23-Aug-2019 (Fri)
08:00:00 clear sky 13.960 13.957 13.960 24 1.07 m/h 0 %
11:00:00 clear sky 17.450 17.450 17.450 21 0.9 m/h 0 %
14:00:00 clear sky 19.730 19.730 19.731 18 0.94 m/h 0 %
17:00:00 scattered clouds 20.610 20.610 20.611 16 1.33 m/h 0 %
20:00:00 broken clouds 17.950 17.950 17.950 26 3.12 m/h 0 %
23:00:00 scattered clouds 15.642 15.642 15.642 36 2.49 m/h 0 %
24-Aug-2019 (Sat)
02:00:00 clear sky 13.431 13.431 13.431 42 2.1 m/h 0 %
05:00:00 clear sky 11.755 11.755 11.755 46 1.97 m/h 0 %
08:00:00 clear sky 14.367 14.367 14.367 37 1.14 m/h 0 %
11:00:00 clear sky 17.869 17.869 17.869 26 0.94 m/h 0 %
14:00:00 few clouds 20.369 20.369 20.369 19 0.76 m/h 0 %
17:00:00 broken clouds 21.123 21.123 21.123 16 0.8 m/h 0 %
20:00:00 overcast clouds 17.750 17.750 17.750 29 3.38 m/h 0 %
23:00:00 scattered clouds 15.669 15.669 15.669 38 3.03 m/h 0 %
25-Aug-2019 (Sun)
02:00:00 clear sky 13.831 13.831 13.831 42 2.15 m/h 0 %
05:00:00 clear sky 12.257 12.257 12.257 43 2.21 m/h 0 %
08:00:00 clear sky 14.714 14.714 14.714 36 1.85 m/h 0 %
11:00:00 clear sky 18.016 18.016 18.016 28 0.85 m/h 0 %
14:00:00 clear sky 20.750 20.750 20.750 21 1.97 m/h 0 %
17:00:00 few clouds 20.750 20.750 20.750 24 4.24 m/h 0 %
20:00:00 clear sky 17.981 17.981 17.981 27 4.26 m/h 0 %
23:00:00 clear sky 16.011 16.011 16.011 32 3.19 m/h 0 %
26-Aug-2019 (Mon)
02:00:00 clear sky 13.965 13.965 13.965 36 2.47 m/h 0 %
05:00:00 clear sky 12.350 12.350 12.350 41 2.15 m/h 0 %
08:00:00 clear sky 14.967 14.967 14.967 33 1.74 m/h 0 %
11:00:00 clear sky 18.672 18.672 18.672 24 0.36 m/h 0 %
14:00:00 clear sky 21.584 21.584 21.584 20 1.67 m/h 0 %
17:00:00 clear sky 21.820 21.820 21.820 25 3.32 m/h 0 %
20:00:00 clear sky 18.772 18.772 18.772 36 3.99 m/h 0 %
23:00:00 clear sky 16.914 16.914 16.914 43 2.55 m/h 0 %
27-Aug-2019 (Tue)
02:00:00 clear sky 14.916 14.916 14.916 50 2.22 m/h 0 %
05:00:00 clear sky 13.250 13.250 13.250 50 2.33 m/h 0 %
08:00:00 clear sky 15.535 15.535 15.535 43 1.66 m/h 0 %
11:00:00 clear sky 19.036 19.036 19.036 34 0.87 m/h 0 %
14:00:00 clear sky 22.036 22.036 22.036 23 1.73 m/h 0 %
17:00:00 scattered clouds 22.865 22.865 22.865 20 2.38 m/h 0 %
20:00:00 overcast clouds 19.850 19.850 19.850 26 3.56 m/h 0 %
23:00:00 broken clouds 17.550 17.550 17.550 37 2.3 m/h 0 %
28-Aug-2019 (Wed)
02:00:00 broken clouds 15.957 15.957 15.957 43 2.05 m/h 0 %
05:00:00 broken clouds 15.372 15.372 15.372 43 3.29 m/h 0 %


Skardu's Tourist Spots

Hotels and Restaurants in Skardu

Famous Cities (61)